sensor_id;sensor_type;location;lat;lon;timestamp;P1;durP1;ratioP1;P2;durP2;ratioP2
21202;SDS011;10759;51.982;9.232;2023-07-29T00:00:54;3.17;;;2.03;;
21202;SDS011;10759;51.982;9.232;2023-07-29T00:03:22;3.20;;;2.03;;
21202;SDS011;10759;51.982;9.232;2023-07-29T00:05:51;2.00;;;1.90;;
21202;SDS011;10759;51.982;9.232;2023-07-29T00:08:20;2.15;;;2.05;;
21202;SDS011;10759;51.982;9.232;2023-07-29T00:10:48;2.45;;;2.35;;
21202;SDS011;10759;51.982;9.232;2023-07-29T00:13:16;2.05;;;1.95;;
21202;SDS011;10759;51.982;9.232;2023-07-29T00:15:48;2.75;;;2.08;;
21202;SDS011;10759;51.982;9.232;2023-07-29T00:18:17;2.38;;;2.17;;
21202;SDS011;10759;51.982;9.232;2023-07-29T00:20:45;2.58;;;1.92;;
21202;SDS011;10759;51.982;9.232;2023-07-29T00:23:13;2.28;;;2.03;;
21202;SDS011;10759;51.982;9.232;2023-07-29T00:25:42;2.20;;;2.10;;
21202;SDS011;10759;51.982;9.232;2023-07-29T00:28:11;2.58;;;2.28;;
21202;SDS011;10759;51.982;9.232;2023-07-29T00:30:39;2.17;;;2.08;;
21202;SDS011;10759;51.982;9.232;2023-07-29T00:33:08;3.45;;;2.28;;
21202;SDS011;10759;51.982;9.232;2023-07-29T00:35:39;2.57;;;2.00;;
21202;SDS011;10759;51.982;9.232;2023-07-29T00:38:07;3.90;;;2.42;;
21202;SDS011;10759;51.982;9.232;2023-07-29T00:40:35;3.63;;;2.50;;
21202;SDS011;10759;51.982;9.232;2023-07-29T00:43:04;2.38;;;2.20;;
21202;SDS011;10759;51.982;9.232;2023-07-29T00:45:34;4.50;;;2.50;;
21202;SDS011;10759;51.982;9.232;2023-07-29T00:48:03;2.33;;;2.10;;
21202;SDS011;10759;51.982;9.232;2023-07-29T00:50:32;2.40;;;2.20;;
21202;SDS011;10759;51.982;9.232;2023-07-29T00:53:02;3.55;;;2.03;;
21202;SDS011;10759;51.982;9.232;2023-07-29T00:55:31;2.10;;;2.00;;
21202;SDS011;10759;51.982;9.232;2023-07-29T00:58:00;2.20;;;2.10;;
21202;SDS011;10759;51.982;9.232;2023-07-29T01:00:31;3.15;;;2.17;;
21202;SDS011;10759;51.982;9.232;2023-07-29T01:03:03;1.98;;;1.88;;
21202;SDS011;10759;51.982;9.232;2023-07-29T01:05:34;2.28;;;1.83;;
21202;SDS011;10759;51.982;9.232;2023-07-29T01:08:11;3.42;;;2.10;;
21202;SDS011;10759;51.982;9.232;2023-07-29T01:11:01;2.67;;;2.47;;
21202;SDS011;10759;51.982;9.232;2023-07-29T01:13:37;4.25;;;2.33;;
21202;SDS011;10759;51.982;9.232;2023-07-29T01:16:13;2.85;;;2.03;;
21202;SDS011;10759;51.982;9.232;2023-07-29T01:18:47;1.95;;;1.85;;
21202;SDS011;10759;51.982;9.232;2023-07-29T01:21:16;1.90;;;1.80;;
21202;SDS011;10759;51.982;9.232;2023-07-29T01:23:46;1.73;;;1.63;;
21202;SDS011;10759;51.982;9.232;2023-07-29T01:26:14;2.10;;;2.00;;
21202;SDS011;10759;51.982;9.232;2023-07-29T01:28:43;1.90;;;1.80;;
21202;SDS011;10759;51.982;9.232;2023-07-29T01:31:12;2.03;;;1.92;;
21202;SDS011;10759;51.982;9.232;2023-07-29T01:33:48;2.63;;;1.90;;
21202;SDS011;10759;51.982;9.232;2023-07-29T01:36:21;2.08;;;1.98;;
21202;SDS011;10759;51.982;9.232;2023-07-29T01:38:54;2.05;;;1.92;;
21202;SDS011;10759;51.982;9.232;2023-07-29T01:41:25;2.10;;;1.90;;
21202;SDS011;10759;51.982;9.232;2023-07-29T01:43:55;3.30;;;2.25;;
21202;SDS011;10759;51.982;9.232;2023-07-29T01:46:25;2.25;;;1.80;;
21202;SDS011;10759;51.982;9.232;2023-07-29T01:48:53;2.83;;;1.90;;
21202;SDS011;10759;51.982;9.232;2023-07-29T01:51:21;3.22;;;1.80;;
21202;SDS011;10759;51.982;9.232;2023-07-29T01:53:50;2.35;;;1.80;;
21202;SDS011;10759;51.982;9.232;2023-07-29T01:56:19;2.72;;;1.85;;
21202;SDS011;10759;51.982;9.232;2023-07-29T01:58:52;2.13;;;1.92;;
21202;SDS011;10759;51.982;9.232;2023-07-29T02:01:21;2.85;;;2.28;;
21202;SDS011;10759;51.982;9.232;2023-07-29T02:03:49;2.17;;;2.08;;
21202;SDS011;10759;51.982;9.232;2023-07-29T02:06:23;4.53;;;2.20;;
21202;SDS011;10759;51.982;9.232;2023-07-29T02:08:52;2.22;;;2.03;;
21202;SDS011;10759;51.982;9.232;2023-07-29T02:11:23;2.50;;;2.25;;
21202;SDS011;10759;51.982;9.232;2023-07-29T02:13:55;4.18;;;2.75;;
21202;SDS011;10759;51.982;9.232;2023-07-29T02:16:24;2.88;;;2.60;;
21202;SDS011;10759;51.982;9.232;2023-07-29T02:18:52;2.30;;;2.10;;
21202;SDS011;10759;51.982;9.232;2023-07-29T02:23:50;2.67;;;2.47;;
21202;SDS011;10759;51.982;9.232;2023-07-29T02:26:19;2.40;;;2.28;;
21202;SDS011;10759;51.982;9.232;2023-07-29T02:28:49;2.50;;;2.38;;
21202;SDS011;10759;51.982;9.232;2023-07-29T02:31:17;2.55;;;2.35;;
21202;SDS011;10759;51.982;9.232;2023-07-29T02:33:48;2.55;;;2.13;;
21202;SDS011;10759;51.982;9.232;2023-07-29T02:36:18;5.60;;;2.80;;
21202;SDS011;10759;51.982;9.232;2023-07-29T02:38:46;3.25;;;2.35;;
21202;SDS011;10759;51.982;9.232;2023-07-29T02:41:15;2.22;;;2.13;;
21202;SDS011;10759;51.982;9.232;2023-07-29T02:43:43;2.03;;;1.92;;
21202;SDS011;10759;51.982;9.232;2023-07-29T02:46:17;2.45;;;2.25;;
21202;SDS011;10759;51.982;9.232;2023-07-29T02:51:14;2.65;;;2.42;;
21202;SDS011;10759;51.982;9.232;2023-07-29T02:53:42;2.22;;;2.08;;
21202;SDS011;10759;51.982;9.232;2023-07-29T02:56:10;2.63;;;2.40;;
21202;SDS011;10759;51.982;9.232;2023-07-29T02:58:38;3.13;;;2.38;;
21202;SDS011;10759;51.982;9.232;2023-07-29T03:01:07;2.72;;;2.53;;
21202;SDS011;10759;51.982;9.232;2023-07-29T03:03:39;3.22;;;2.63;;
21202;SDS011;10759;51.982;9.232;2023-07-29T03:06:08;4.15;;;2.40;;
21202;SDS011;10759;51.982;9.232;2023-07-29T03:08:37;2.65;;;2.47;;
21202;SDS011;10759;51.982;9.232;2023-07-29T03:11:06;3.00;;;2.80;;
21202;SDS011;10759;51.982;9.232;2023-07-29T03:13:35;2.78;;;2.58;;
21202;SDS011;10759;51.982;9.232;2023-07-29T03:16:04;2.53;;;2.38;;
21202;SDS011;10759;51.982;9.232;2023-07-29T03:21:04;2.45;;;2.35;;
21202;SDS011;10759;51.982;9.232;2023-07-29T03:23:33;2.92;;;2.55;;
21202;SDS011;10759;51.982;9.232;2023-07-29T03:26:02;3.58;;;2.60;;
21202;SDS011;10759;51.982;9.232;2023-07-29T03:28:37;3.83;;;3.00;;
21202;SDS011;10759;51.982;9.232;2023-07-29T03:31:07;3.30;;;2.88;;
21202;SDS011;10759;51.982;9.232;2023-07-29T03:33:36;3.38;;;3.00;;
21202;SDS011;10759;51.982;9.232;2023-07-29T03:36:06;2.70;;;2.50;;
21202;SDS011;10759;51.982;9.232;2023-07-29T03:38:34;5.25;;;2.78;;
21202;SDS011;10759;51.982;9.232;2023-07-29T03:41:07;2.63;;;2.42;;
21202;SDS011;10759;51.982;9.232;2023-07-29T03:43:36;2.83;;;2.42;;
21202;SDS011;10759;51.982;9.232;2023-07-29T03:46:04;2.75;;;2.55;;
21202;SDS011;10759;51.982;9.232;2023-07-29T03:48:38;4.65;;;2.33;;
21202;SDS011;10759;51.982;9.232;2023-07-29T03:51:08;2.90;;;2.70;;
21202;SDS011;10759;51.982;9.232;2023-07-29T03:53:36;2.70;;;2.50;;
21202;SDS011;10759;51.982;9.232;2023-07-29T03:56:04;2.90;;;2.53;;
21202;SDS011;10759;51.982;9.232;2023-07-29T03:58:33;2.78;;;2.55;;
21202;SDS011;10759;51.982;9.232;2023-07-29T04:01:01;4.22;;;3.25;;
21202;SDS011;10759;51.982;9.232;2023-07-29T04:03:32;3.15;;;2.40;;
21202;SDS011;10759;51.982;9.232;2023-07-29T04:06:02;2.78;;;2.55;;
21202;SDS011;10759;51.982;9.232;2023-07-29T04:08:31;2.78;;;2.58;;
21202;SDS011;10759;51.982;9.232;2023-07-29T04:11:00;2.88;;;2.63;;
21202;SDS011;10759;51.982;9.232;2023-07-29T04:13:28;2.70;;;2.50;;
21202;SDS011;10759;51.982;9.232;2023-07-29T04:15:56;3.92;;;2.58;;
21202;SDS011;10759;51.982;9.232;2023-07-29T04:18:25;3.85;;;2.88;;
21202;SDS011;10759;51.982;9.232;2023-07-29T04:20:53;6.80;;;2.55;;
21202;SDS011;10759;51.982;9.232;2023-07-29T04:23:21;2.80;;;2.60;;
21202;SDS011;10759;51.982;9.232;2023-07-29T04:25:51;3.08;;;2.58;;
21202;SDS011;10759;51.982;9.232;2023-07-29T04:28:19;4.20;;;2.30;;
21202;SDS011;10759;51.982;9.232;2023-07-29T04:30:47;3.55;;;2.35;;
21202;SDS011;10759;51.982;9.232;2023-07-29T04:33:16;3.00;;;2.80;;
21202;SDS011;10759;51.982;9.232;2023-07-29T04:35:44;2.47;;;2.38;;
21202;SDS011;10759;51.982;9.232;2023-07-29T04:38:13;3.08;;;2.60;;
21202;SDS011;10759;51.982;9.232;2023-07-29T04:40:41;2.50;;;2.40;;
21202;SDS011;10759;51.982;9.232;2023-07-29T04:43:11;3.17;;;2.88;;
21202;SDS011;10759;51.982;9.232;2023-07-29T04:45:42;2.97;;;2.78;;
21202;SDS011;10759;51.982;9.232;2023-07-29T04:48:11;2.90;;;2.70;;
21202;SDS011;10759;51.982;9.232;2023-07-29T04:50:39;2.80;;;2.60;;
21202;SDS011;10759;51.982;9.232;2023-07-29T04:53:07;3.38;;;2.80;;
21202;SDS011;10759;51.982;9.232;2023-07-29T04:55:36;3.15;;;2.95;;
21202;SDS011;10759;51.982;9.232;2023-07-29T04:58:04;3.50;;;3.30;;
21202;SDS011;10759;51.982;9.232;2023-07-29T05:00:34;3.45;;;2.80;;
21202;SDS011;10759;51.982;9.232;2023-07-29T05:03:02;2.90;;;2.70;;
21202;SDS011;10759;51.982;9.232;2023-07-29T05:05:30;2.90;;;2.70;;
21202;SDS011;10759;51.982;9.232;2023-07-29T05:07:59;3.45;;;2.85;;
21202;SDS011;10759;51.982;9.232;2023-07-29T05:10:27;3.70;;;3.00;;
21202;SDS011;10759;51.982;9.232;2023-07-29T05:12:56;3.35;;;3.05;;
21202;SDS011;10759;51.982;9.232;2023-07-29T05:15:24;4.68;;;2.78;;
21202;SDS011;10759;51.982;9.232;2023-07-29T05:17:54;4.93;;;2.55;;
21202;SDS011;10759;51.982;9.232;2023-07-29T05:20:23;3.67;;;3.10;;
21202;SDS011;10759;51.982;9.232;2023-07-29T05:22:51;3.65;;;2.88;;
21202;SDS011;10759;51.982;9.232;2023-07-29T05:25:20;2.88;;;2.70;;
21202;SDS011;10759;51.982;9.232;2023-07-29T05:27:48;3.10;;;2.90;;
21202;SDS011;10759;51.982;9.232;2023-07-29T05:30:16;3.08;;;2.78;;
21202;SDS011;10759;51.982;9.232;2023-07-29T05:32:45;3.53;;;3.05;;
21202;SDS011;10759;51.982;9.232;2023-07-29T05:35:15;3.70;;;2.75;;
21202;SDS011;10759;51.982;9.232;2023-07-29T05:37:43;3.28;;;3.08;;
21202;SDS011;10759;51.982;9.232;2023-07-29T05:40:11;3.17;;;2.97;;
21202;SDS011;10759;51.982;9.232;2023-07-29T05:42:40;3.47;;;3.17;;
21202;SDS011;10759;51.982;9.232;2023-07-29T05:45:09;3.33;;;3.10;;
21202;SDS011;10759;51.982;9.232;2023-07-29T05:47:38;3.35;;;3.15;;
21202;SDS011;10759;51.982;9.232;2023-07-29T05:50:06;6.18;;;3.75;;
21202;SDS011;10759;51.982;9.232;2023-07-29T05:52:37;3.60;;;3.33;;
21202;SDS011;10759;51.982;9.232;2023-07-29T05:55:06;3.33;;;3.03;;
21202;SDS011;10759;51.982;9.232;2023-07-29T05:57:35;2.80;;;2.60;;
21202;SDS011;10759;51.982;9.232;2023-07-29T06:00:06;3.22;;;2.92;;
21202;SDS011;10759;51.982;9.232;2023-07-29T06:02:41;3.40;;;3.00;;
21202;SDS011;10759;51.982;9.232;2023-07-29T06:05:14;2.33;;;2.22;;
21202;SDS011;10759;51.982;9.232;2023-07-29T06:07:44;4.15;;;2.55;;
21202;SDS011;10759;51.982;9.232;2023-07-29T06:10:15;3.22;;;2.67;;
21202;SDS011;10759;51.982;9.232;2023-07-29T06:12:45;4.20;;;2.38;;
21202;SDS011;10759;51.982;9.232;2023-07-29T06:15:14;4.20;;;3.78;;
21202;SDS011;10759;51.982;9.232;2023-07-29T06:17:42;4.32;;;2.50;;
21202;SDS011;10759;51.982;9.232;2023-07-29T06:20:11;3.22;;;2.40;;
21202;SDS011;10759;51.982;9.232;2023-07-29T06:22:39;4.93;;;2.70;;
21202;SDS011;10759;51.982;9.232;2023-07-29T06:25:10;2.50;;;2.05;;
21202;SDS011;10759;51.982;9.232;2023-07-29T06:27:38;2.08;;;1.98;;
21202;SDS011;10759;51.982;9.232;2023-07-29T06:30:07;1.92;;;1.65;;
21202;SDS011;10759;51.982;9.232;2023-07-29T06:32:35;1.70;;;1.60;;
21202;SDS011;10759;51.982;9.232;2023-07-29T06:35:04;1.75;;;1.65;;
21202;SDS011;10759;51.982;9.232;2023-07-29T06:37:33;1.58;;;1.48;;
21202;SDS011;10759;51.982;9.232;2023-07-29T06:40:01;1.45;;;1.35;;
21202;SDS011;10759;51.982;9.232;2023-07-29T06:42:31;1.67;;;1.40;;
21202;SDS011;10759;51.982;9.232;2023-07-29T06:44:59;1.40;;;1.30;;
21202;SDS011;10759;51.982;9.232;2023-07-29T06:47:27;1.30;;;1.30;;
21202;SDS011;10759;51.982;9.232;2023-07-29T06:49:56;1.55;;;1.45;;
21202;SDS011;10759;51.982;9.232;2023-07-29T06:52:24;1.50;;;1.40;;
21202;SDS011;10759;51.982;9.232;2023-07-29T06:54:52;3.05;;;1.55;;
21202;SDS011;10759;51.982;9.232;2023-07-29T06:57:20;1.30;;;1.20;;
21202;SDS011;10759;51.982;9.232;2023-07-29T06:59:50;1.13;;;1.13;;
21202;SDS011;10759;51.982;9.232;2023-07-29T07:02:18;1.60;;;1.50;;
21202;SDS011;10759;51.982;9.232;2023-07-29T07:04:47;1.17;;;1.15;;
21202;SDS011;10759;51.982;9.232;2023-07-29T07:07:15;1.40;;;1.30;;
21202;SDS011;10759;51.982;9.232;2023-07-29T07:09:43;1.48;;;1.33;;
21202;SDS011;10759;51.982;9.232;2023-07-29T07:12:12;1.42;;;1.40;;
21202;SDS011;10759;51.982;9.232;2023-07-29T07:14:40;1.40;;;1.25;;
21202;SDS011;10759;51.982;9.232;2023-07-29T07:17:10;1.60;;;1.50;;
21202;SDS011;10759;51.982;9.232;2023-07-29T07:19:39;1.70;;;1.58;;
21202;SDS011;10759;51.982;9.232;2023-07-29T07:22:08;1.58;;;1.40;;
21202;SDS011;10759;51.982;9.232;2023-07-29T07:24:37;1.58;;;1.48;;
21202;SDS011;10759;51.982;9.232;2023-07-29T07:27:06;2.47;;;2.03;;
21202;SDS011;10759;51.982;9.232;2023-07-29T07:29:34;1.73;;;1.60;;
21202;SDS011;10759;51.982;9.232;2023-07-29T07:32:03;1.50;;;1.40;;
21202;SDS011;10759;51.982;9.232;2023-07-29T07:34:34;1.40;;;1.40;;
21202;SDS011;10759;51.982;9.232;2023-07-29T07:37:02;1.75;;;1.70;;
21202;SDS011;10759;51.982;9.232;2023-07-29T07:39:31;1.58;;;1.48;;
21202;SDS011;10759;51.982;9.232;2023-07-29T07:41:59;1.38;;;1.38;;
21202;SDS011;10759;51.982;9.232;2023-07-29T07:44:27;1.73;;;1.63;;
21202;SDS011;10759;51.982;9.232;2023-07-29T07:46:56;1.77;;;1.63;;
21202;SDS011;10759;51.982;9.232;2023-07-29T07:49:24;1.90;;;1.80;;
21202;SDS011;10759;51.982;9.232;2023-07-29T07:51:54;2.10;;;2.00;;
21202;SDS011;10759;51.982;9.232;2023-07-29T07:54:22;1.70;;;1.60;;
21202;SDS011;10759;51.982;9.232;2023-07-29T07:56:51;2.20;;;2.10;;
21202;SDS011;10759;51.982;9.232;2023-07-29T07:59:19;2.40;;;2.15;;
21202;SDS011;10759;51.982;9.232;2023-07-29T08:01:47;2.28;;;2.17;;
21202;SDS011;10759;51.982;9.232;2023-07-29T08:04:15;2.33;;;2.20;;
21202;SDS011;10759;51.982;9.232;2023-07-29T08:06:43;2.35;;;2.17;;
21202;SDS011;10759;51.982;9.232;2023-07-29T08:09:12;2.60;;;2.40;;
21202;SDS011;10759;51.982;9.232;2023-07-29T08:14:09;2.65;;;2.45;;
21202;SDS011;10759;51.982;9.232;2023-07-29T08:16:36;2.88;;;2.78;;
21202;SDS011;10759;51.982;9.232;2023-07-29T08:19:05;3.40;;;3.10;;
21202;SDS011;10759;51.982;9.232;2023-07-29T08:21:33;4.57;;;3.58;;
21202;SDS011;10759;51.982;9.232;2023-07-29T08:24:01;3.85;;;3.65;;
21202;SDS011;10759;51.982;9.232;2023-07-29T08:26:31;4.40;;;4.10;;
21202;SDS011;10759;51.982;9.232;2023-07-29T08:28:59;4.57;;;4.27;;
21202;SDS011;10759;51.982;9.232;2023-07-29T08:31:27;7.18;;;6.53;;
21202;SDS011;10759;51.982;9.232;2023-07-29T08:33:55;6.38;;;5.97;;
21202;SDS011;10759;51.982;9.232;2023-07-29T08:36:23;9.25;;;8.45;;
21202;SDS011;10759;51.982;9.232;2023-07-29T08:38:51;11.15;;;10.35;;
21202;SDS011;10759;51.982;9.232;2023-07-29T08:41:21;17.98;;;16.67;;
21202;SDS011;10759;51.982;9.232;2023-07-29T08:43:56;19.10;;;17.65;;
21202;SDS011;10759;51.982;9.232;2023-07-29T08:46:30;18.73;;;17.40;;
21202;SDS011;10759;51.982;9.232;2023-07-29T08:48:58;18.92;;;17.63;;
21202;SDS011;10759;51.982;9.232;2023-07-29T08:51:28;18.13;;;16.92;;
21202;SDS011;10759;51.982;9.232;2023-07-29T08:53:59;20.63;;;19.13;;
21202;SDS011;10759;51.982;9.232;2023-07-29T08:56:27;21.23;;;19.83;;
21202;SDS011;10759;51.982;9.232;2023-07-29T08:58:58;20.40;;;18.98;;
21202;SDS011;10759;51.982;9.232;2023-07-29T09:01:28;20.48;;;19.08;;
21202;SDS011;10759;51.982;9.232;2023-07-29T09:03:57;20.35;;;19.05;;
21202;SDS011;10759;51.982;9.232;2023-07-29T09:06:26;20.00;;;18.52;;
21202;SDS011;10759;51.982;9.232;2023-07-29T09:08:55;19.65;;;18.45;;
21202;SDS011;10759;51.982;9.232;2023-07-29T09:11:23;17.88;;;16.60;;
21202;SDS011;10759;51.982;9.232;2023-07-29T09:13:52;16.33;;;15.32;;
21202;SDS011;10759;51.982;9.232;2023-07-29T09:16:21;14.52;;;13.43;;
21202;SDS011;10759;51.982;9.232;2023-07-29T09:18:50;15.20;;;14.20;;
21202;SDS011;10759;51.982;9.232;2023-07-29T09:21:22;13.57;;;12.77;;
21202;SDS011;10759;51.982;9.232;2023-07-29T09:23:51;13.95;;;12.95;;
21202;SDS011;10759;51.982;9.232;2023-07-29T09:26:21;13.52;;;12.52;;
21202;SDS011;10759;51.982;9.232;2023-07-29T09:28:52;13.35;;;12.43;;
21202;SDS011;10759;51.982;9.232;2023-07-29T09:31:23;10.43;;;9.82;;
21202;SDS011;10759;51.982;9.232;2023-07-29T09:33:55;10.15;;;9.48;;
21202;SDS011;10759;51.982;9.232;2023-07-29T09:36:26;9.93;;;9.25;;
21202;SDS011;10759;51.982;9.232;2023-07-29T09:38:57;8.68;;;8.07;;
21202;SDS011;10759;51.982;9.232;2023-07-29T09:41:26;9.68;;;9.07;;
21202;SDS011;10759;51.982;9.232;2023-07-29T09:43:55;10.10;;;9.50;;
21202;SDS011;10759;51.982;9.232;2023-07-29T09:46:31;11.13;;;10.27;;
21202;SDS011;10759;51.982;9.232;2023-07-29T09:49:01;10.40;;;9.70;;
21202;SDS011;10759;51.982;9.232;2023-07-29T09:51:33;10.90;;;10.18;;
21202;SDS011;10759;51.982;9.232;2023-07-29T09:54:07;9.88;;;9.18;;
21202;SDS011;10759;51.982;9.232;2023-07-29T09:56:39;9.57;;;8.98;;
21202;SDS011;10759;51.982;9.232;2023-07-29T09:59:09;9.25;;;8.65;;
21202;SDS011;10759;51.982;9.232;2023-07-29T10:01:39;8.95;;;8.45;;
21202;SDS011;10759;51.982;9.232;2023-07-29T10:04:07;8.15;;;7.65;;
21202;SDS011;10759;51.982;9.232;2023-07-29T10:06:39;8.60;;;8.10;;
21202;SDS011;10759;51.982;9.232;2023-07-29T10:09:09;9.07;;;8.23;;
21202;SDS011;10759;51.982;9.232;2023-07-29T10:11:39;8.50;;;8.00;;
21202;SDS011;10759;51.982;9.232;2023-07-29T10:16:39;9.93;;;9.23;;
21202;SDS011;10759;51.982;9.232;2023-07-29T10:19:09;8.05;;;7.60;;
21202;SDS011;10759;51.982;9.232;2023-07-29T10:21:39;7.18;;;6.68;;
21202;SDS011;10759;51.982;9.232;2023-07-29T10:24:13;6.82;;;6.32;;
21202;SDS011;10759;51.982;9.232;2023-07-29T10:26:44;5.72;;;5.32;;
21202;SDS011;10759;51.982;9.232;2023-07-29T10:29:14;5.03;;;4.63;;
21202;SDS011;10759;51.982;9.232;2023-07-29T10:31:47;4.20;;;4.00;;
21202;SDS011;10759;51.982;9.232;2023-07-29T10:34:16;5.10;;;4.80;;
21202;SDS011;10759;51.982;9.232;2023-07-29T10:36:45;4.65;;;4.25;;
21202;SDS011;10759;51.982;9.232;2023-07-29T10:39:14;3.90;;;3.70;;
21202;SDS011;10759;51.982;9.232;2023-07-29T10:41:55;3.00;;;2.80;;
21202;SDS011;10759;51.982;9.232;2023-07-29T10:47:18;3.05;;;2.42;;
21202;SDS011;10759;51.982;9.232;2023-07-29T10:49:49;2.83;;;2.22;;
21202;SDS011;10759;51.982;9.232;2023-07-29T10:52:30;1.50;;;1.40;;
21202;SDS011;10759;51.982;9.232;2023-07-29T10:57:52;1.33;;;1.23;;
21202;SDS011;10759;51.982;9.232;2023-07-29T11:00:33;1.42;;;1.33;;
21202;SDS011;10759;51.982;9.232;2023-07-29T11:03:04;1.40;;;1.30;;
21202;SDS011;10759;51.982;9.232;2023-07-29T11:05:45;1.30;;;1.20;;
21202;SDS011;10759;51.982;9.232;2023-07-29T11:08:22;2.65;;;1.10;;
21202;SDS011;10759;51.982;9.232;2023-07-29T11:10:58;1.75;;;0.95;;
21202;SDS011;10759;51.982;9.232;2023-07-29T11:13:32;1.77;;;1.10;;
21202;SDS011;10759;51.982;9.232;2023-07-29T11:18:31;1.15;;;1.05;;
21202;SDS011;10759;51.982;9.232;2023-07-29T11:21:01;0.82;;;0.82;;
21202;SDS011;10759;51.982;9.232;2023-07-29T11:23:31;1.05;;;0.90;;
21202;SDS011;10759;51.982;9.232;2023-07-29T11:26:01;0.95;;;0.90;;
21202;SDS011;10759;51.982;9.232;2023-07-29T11:28:37;1.38;;;0.90;;
21202;SDS011;10759;51.982;9.232;2023-07-29T11:31:06;0.90;;;0.90;;
21202;SDS011;10759;51.982;9.232;2023-07-29T11:33:38;1.20;;;1.10;;
21202;SDS011;10759;51.982;9.232;2023-07-29T11:36:16;1.20;;;1.10;;
21202;SDS011;10759;51.982;9.232;2023-07-29T11:38:45;1.60;;;0.93;;
21202;SDS011;10759;51.982;9.232;2023-07-29T11:41:18;2.05;;;1.00;;
21202;SDS011;10759;51.982;9.232;2023-07-29T11:43:48;0.90;;;0.90;;
21202;SDS011;10759;51.982;9.232;2023-07-29T11:46:20;1.02;;;0.77;;
21202;SDS011;10759;51.982;9.232;2023-07-29T11:48:50;2.35;;;1.17;;
21202;SDS011;10759;51.982;9.232;2023-07-29T11:51:21;1.13;;;1.02;;
21202;SDS011;10759;51.982;9.232;2023-07-29T11:53:50;1.67;;;1.08;;
21202;SDS011;10759;51.982;9.232;2023-07-29T11:56:19;1.08;;;0.85;;
21202;SDS011;10759;51.982;9.232;2023-07-29T11:58:48;1.33;;;1.00;;
21202;SDS011;10759;51.982;9.232;2023-07-29T12:01:17;2.05;;;1.00;;
21202;SDS011;10759;51.982;9.232;2023-07-29T12:03:46;1.20;;;0.90;;
21202;SDS011;10759;51.982;9.232;2023-07-29T12:06:16;2.13;;;1.08;;
21202;SDS011;10759;51.982;9.232;2023-07-29T12:08:45;1.85;;;1.13;;
21202;SDS011;10759;51.982;9.232;2023-07-29T12:11:13;1.35;;;1.25;;
21202;SDS011;10759;51.982;9.232;2023-07-29T12:13:43;1.23;;;1.17;;
21202;SDS011;10759;51.982;9.232;2023-07-29T12:16:15;1.50;;;1.40;;
21202;SDS011;10759;51.982;9.232;2023-07-29T12:18:45;1.30;;;1.20;;
21202;SDS011;10759;51.982;9.232;2023-07-29T12:21:17;1.65;;;1.55;;
21202;SDS011;10759;51.982;9.232;2023-07-29T12:23:46;1.48;;;1.13;;
21202;SDS011;10759;51.982;9.232;2023-07-29T12:26:15;1.08;;;1.08;;
21202;SDS011;10759;51.982;9.232;2023-07-29T12:28:45;2.05;;;1.15;;
21202;SDS011;10759;51.982;9.232;2023-07-29T12:31:14;1.40;;;1.30;;
21202;SDS011;10759;51.982;9.232;2023-07-29T12:33:43;2.22;;;2.03;;
21202;SDS011;10759;51.982;9.232;2023-07-29T12:36:11;1.52;;;1.42;;
21202;SDS011;10759;51.982;9.232;2023-07-29T12:38:43;3.80;;;1.55;;
21202;SDS011;10759;51.982;9.232;2023-07-29T12:41:12;1.67;;;1.55;;
21202;SDS011;10759;51.982;9.232;2023-07-29T12:43:41;1.48;;;1.30;;
21202;SDS011;10759;51.982;9.232;2023-07-29T12:46:09;1.75;;;1.58;;
21202;SDS011;10759;51.982;9.232;2023-07-29T12:48:38;1.60;;;1.50;;
21202;SDS011;10759;51.982;9.232;2023-07-29T12:51:06;1.85;;;1.35;;
21202;SDS011;10759;51.982;9.232;2023-07-29T12:53:34;1.75;;;1.65;;
21202;SDS011;10759;51.982;9.232;2023-07-29T12:56:05;2.10;;;1.90;;
21202;SDS011;10759;51.982;9.232;2023-07-29T12:58:34;1.58;;;1.50;;
21202;SDS011;10759;51.982;9.232;2023-07-29T13:01:02;1.85;;;1.75;;
21202;SDS011;10759;51.982;9.232;2023-07-29T13:03:30;1.63;;;1.52;;
21202;SDS011;10759;51.982;9.232;2023-07-29T13:05:59;2.58;;;1.75;;
21202;SDS011;10759;51.982;9.232;2023-07-29T13:08:29;1.70;;;1.60;;
21202;SDS011;10759;51.982;9.232;2023-07-29T13:10:58;2.55;;;1.80;;
21202;SDS011;10759;51.982;9.232;2023-07-29T13:13:28;1.60;;;1.50;;
21202;SDS011;10759;51.982;9.232;2023-07-29T13:15:56;2.22;;;1.85;;
21202;SDS011;10759;51.982;9.232;2023-07-29T13:18:28;2.20;;;2.00;;
21202;SDS011;10759;51.982;9.232;2023-07-29T13:20:56;1.83;;;1.42;;
21202;SDS011;10759;51.982;9.232;2023-07-29T13:23:25;2.10;;;1.92;;
21202;SDS011;10759;51.982;9.232;2023-07-29T13:25:54;2.05;;;1.88;;
21202;SDS011;10759;51.982;9.232;2023-07-29T13:28:23;1.85;;;1.75;;
21202;SDS011;10759;51.982;9.232;2023-07-29T13:30:53;1.80;;;1.70;;
21202;SDS011;10759;51.982;9.232;2023-07-29T13:33:22;1.95;;;1.80;;
21202;SDS011;10759;51.982;9.232;2023-07-29T13:35:50;1.75;;;1.65;;
21202;SDS011;10759;51.982;9.232;2023-07-29T13:38:18;1.52;;;1.42;;
21202;SDS011;10759;51.982;9.232;2023-07-29T13:40:46;3.70;;;1.50;;
21202;SDS011;10759;51.982;9.232;2023-07-29T13:43:17;2.67;;;1.70;;
21202;SDS011;10759;51.982;9.232;2023-07-29T13:45:46;2.17;;;1.90;;
21202;SDS011;10759;51.982;9.232;2023-07-29T13:50:45;1.55;;;1.45;;
21202;SDS011;10759;51.982;9.232;2023-07-29T13:53:14;2.05;;;1.85;;
21202;SDS011;10759;51.982;9.232;2023-07-29T13:55:42;2.53;;;2.33;;
21202;SDS011;10759;51.982;9.232;2023-07-29T13:58:10;2.08;;;1.98;;
21202;SDS011;10759;51.982;9.232;2023-07-29T14:00:39;2.50;;;2.30;;
21202;SDS011;10759;51.982;9.232;2023-07-29T14:03:07;2.30;;;2.20;;
21202;SDS011;10759;51.982;9.232;2023-07-29T14:05:37;2.05;;;1.95;;
21202;SDS011;10759;51.982;9.232;2023-07-29T14:08:05;3.65;;;2.30;;
21202;SDS011;10759;51.982;9.232;2023-07-29T14:10:33;6.90;;;3.05;;
21202;SDS011;10759;51.982;9.232;2023-07-29T14:13:02;2.33;;;2.22;;
21202;SDS011;10759;51.982;9.232;2023-07-29T14:15:31;2.50;;;2.40;;
21202;SDS011;10759;51.982;9.232;2023-07-29T14:18:00;2.42;;;2.33;;
21202;SDS011;10759;51.982;9.232;2023-07-29T14:20:29;3.40;;;2.40;;
21202;SDS011;10759;51.982;9.232;2023-07-29T14:22:58;2.67;;;2.47;;
21202;SDS011;10759;51.982;9.232;2023-07-29T14:25:27;2.72;;;2.63;;
21202;SDS011;10759;51.982;9.232;2023-07-29T14:27:56;3.40;;;2.75;;
21202;SDS011;10759;51.982;9.232;2023-07-29T14:30:24;5.95;;;4.05;;
21202;SDS011;10759;51.982;9.232;2023-07-29T14:32:52;4.18;;;3.10;;
21202;SDS011;10759;51.982;9.232;2023-07-29T14:35:21;2.80;;;2.60;;
21202;SDS011;10759;51.982;9.232;2023-07-29T14:37:49;3.30;;;2.85;;
21202;SDS011;10759;51.982;9.232;2023-07-29T14:40:19;2.63;;;2.53;;
21202;SDS011;10759;51.982;9.232;2023-07-29T14:42:47;2.88;;;2.78;;
21202;SDS011;10759;51.982;9.232;2023-07-29T14:45:15;3.63;;;3.15;;
21202;SDS011;10759;51.982;9.232;2023-07-29T14:47:44;3.30;;;3.10;;
21202;SDS011;10759;51.982;9.232;2023-07-29T14:50:12;2.95;;;2.85;;
21202;SDS011;10759;51.982;9.232;2023-07-29T14:52:41;2.95;;;2.85;;
21202;SDS011;10759;51.982;9.232;2023-07-29T14:55:09;5.60;;;5.30;;
21202;SDS011;10759;51.982;9.232;2023-07-29T14:57:39;3.25;;;3.08;;
21202;SDS011;10759;51.982;9.232;2023-07-29T15:00:08;2.83;;;2.70;;
21202;SDS011;10759;51.982;9.232;2023-07-29T15:02:37;4.10;;;3.70;;
21202;SDS011;10759;51.982;9.232;2023-07-29T15:05:06;3.60;;;3.30;;
21202;SDS011;10759;51.982;9.232;2023-07-29T15:07:35;3.33;;;3.03;;
21202;SDS011;10759;51.982;9.232;2023-07-29T15:10:03;3.20;;;2.92;;
21202;SDS011;10759;51.982;9.232;2023-07-29T15:12:32;2.88;;;2.70;;
21202;SDS011;10759;51.982;9.232;2023-07-29T15:15:02;2.95;;;2.67;;
21202;SDS011;10759;51.982;9.232;2023-07-29T15:17:31;2.95;;;2.75;;
21202;SDS011;10759;51.982;9.232;2023-07-29T15:20:00;3.20;;;3.00;;
21202;SDS011;10759;51.982;9.232;2023-07-29T15:22:29;3.13;;;2.93;;